Time;durP1;ratioP1;P1;durP2;ratioP2;P2;SDS_P1;SDS_P2;PMS_P1;PMS_P2;Temp;Humidity;BMP_temperature;BMP_pressure;BME280_temperature;BME280_humidity;BME280_pressure;Samples;Min_cycle;Max_cycle;Signal;HPM_P1;HPM_P2
2023/03/09 00:00:10;;;;;;;4.77;1.60;;;10.60;99.90;;;;;;4977061;28;20046;-68
2023/03/09 00:02:35;;;;;;;2.42;1.20;;;10.50;99.90;;;;;;4975112;28;20137;-68
2023/03/09 00:05:02;;;;;;;5.67;1.00;;;10.30;99.90;;;;;;4975426;28;20023;-69
2023/03/09 00:07:30;;;;;;;4.28;0.90;;;10.20;99.90;;;;;;4973928;28;20270;-69
2023/03/09 00:09:56;;;;;;;6.85;0.90;;;10.10;99.90;;;;;;4973873;28;20035;-69
2023/03/09 00:12:22;;;;;;;3.80;0.90;;;10.10;99.90;;;;;;4985161;28;20058;-70
2023/03/09 00:14:54;;;;;;;3.17;0.80;;;9.90;99.90;;;;;;4994508;28;20080;-70
2023/03/09 00:17:20;;;;;;;3.25;0.95;;;10.00;99.90;;;;;;4993097;28;20121;-68
2023/03/09 00:19:46;;;;;;;2.50;1.13;;;9.80;99.90;;;;;;4994557;28;20065;-69
2023/03/09 00:22:11;;;;;;;3.67;0.70;;;9.80;99.90;;;;;;4994045;28;20034;-69
2023/03/09 00:24:45;;;;;;;2.73;0.60;;;9.80;99.90;;;;;;4993491;28;20026;-68
2023/03/09 00:27:11;;;;;;;2.58;0.63;;;9.80;99.90;;;;;;4995469;28;20471;-68
2023/03/09 00:29:36;;;;;;;1.48;0.63;;;9.80;99.90;;;;;;4994802;28;20041;-68
2023/03/09 00:32:02;;;;;;;2.15;0.70;;;9.70;99.90;;;;;;4995096;28;20034;-68
2023/03/09 00:34:28;;;;;;;1.70;0.50;;;9.70;99.90;;;;;;4993342;28;20023;-69
2023/03/09 00:36:53;;;;;;;4.40;0.90;;;9.90;99.90;;;;;;4995828;28;20276;-70
2023/03/09 00:39:19;;;;;;;2.17;0.90;;;9.80;99.90;;;;;;4998957;28;20030;-70
2023/03/09 00:41:45;;;;;;;3.88;0.90;;;9.70;99.90;;;;;;5002146;28;20484;-70
2023/03/09 00:44:12;;;;;;;2.35;0.80;;;9.70;99.90;;;;;;4997332;28;20113;-69
2023/03/09 00:46:37;;;;;;;1.98;0.75;;;9.90;99.90;;;;;;4997577;28;20093;-69
2023/03/09 00:49:05;;;;;;;1.63;0.70;;;10.00;99.90;;;;;;5003399;28;20034;-70
2023/03/09 00:51:36;;;;;;;2.00;0.77;;;10.10;99.90;;;;;;4999367;28;20773;-69
2023/03/09 00:54:02;;;;;;;4.43;1.00;;;10.20;99.90;;;;;;4997990;28;20027;-68
2023/03/09 00:56:29;;;;;;;2.60;0.77;;;10.30;99.90;;;;;;5006644;28;20061;-69
2023/03/09 00:58:56;;;;;;;4.90;0.88;;;10.30;99.90;;;;;;5004754;28;20046;-69
2023/03/09 01:01:21;;;;;;;;;;;10.30;99.90;;;;;;5007931;28;20105;-70
2023/03/09 01:03:47;;;;;;;3.50;1.00;;;10.40;99.90;;;;;;5008129;28;19906;-70
2023/03/09 01:06:14;;;;;;;4.05;1.42;;;10.40;99.90;;;;;;5006474;28;20045;-69
2023/03/09 01:08:41;;;;;;;5.55;1.20;;;10.50;99.90;;;;;;5002941;28;20031;-70
2023/03/09 01:11:12;;;;;;;3.75;1.30;;;10.50;99.90;;;;;;4996435;28;20035;-69
2023/03/09 01:13:37;;;;;;;3.13;1.17;;;10.40;99.90;;;;;;4973704;28;20117;-70
2023/03/09 01:16:03;;;;;;;3.17;1.00;;;10.40;99.90;;;;;;4958784;28;20106;-69
2023/03/09 01:18:29;;;;;;;4.28;1.20;;;10.40;99.90;;;;;;4959599;29;20555;-71
2023/03/09 01:20:55;;;;;;;3.93;1.20;;;10.40;99.90;;;;;;4963610;29;20043;-70
2023/03/09 01:23:20;;;;;;;2.63;0.90;;;10.50;99.90;;;;;;4977062;28;20027;-69
2023/03/09 01:25:46;;;;;;;4.73;1.20;;;10.50;99.90;;;;;;4962227;28;20123;-69
2023/03/09 01:28:11;;;;;;;2.37;0.83;;;10.50;99.90;;;;;;4960619;29;20028;-69
2023/03/09 01:30:38;;;;;;;4.25;1.00;;;10.50;99.90;;;;;;4958664;29;20030;-69
2023/03/09 01:33:04;;;;;;;4.35;1.00;;;10.50;99.90;;;;;;4958466;29;20035;-70
2023/03/09 01:35:29;;;;;;;3.88;0.80;;;10.50;99.90;;;;;;4959284;28;20035;-69
2023/03/09 01:37:55;;;;;;;4.53;0.77;;;10.70;99.90;;;;;;4958459;28;20051;-70
2023/03/09 01:40:23;;;;;;;3.10;0.60;;;10.70;99.90;;;;;;4958762;28;20034;-69
2023/03/09 01:42:56;;;;;;;0.98;0.50;;;10.70;99.90;;;;;;4985465;28;20062;-70
2023/03/09 01:45:21;;;;;;;4.20;0.50;;;10.70;99.90;;;;;;4995674;28;20030;-70
2023/03/09 01:47:48;;;;;;;1.47;0.60;;;10.70;99.90;;;;;;4997010;28;20394;-70
2023/03/09 01:50:16;;;;;;;1.55;0.50;;;10.70;99.90;;;;;;4995472;28;20033;-70
2023/03/09 01:52:44;;;;;;;0.88;0.50;;;10.80;99.90;;;;;;4996866;28;20085;-70
2023/03/09 01:55:15;;;;;;;1.60;0.55;;;10.80;99.90;;;;;;4996842;28;20030;-71
2023/03/09 01:57:46;;;;;;;2.00;0.60;;;10.80;99.90;;;;;;4997133;28;20034;-70
2023/03/09 02:00:16;;;;;;;2.67;0.50;;;10.80;99.90;;;;;;4995556;28;20038;-69
2023/03/09 02:02:45;;;;;;;2.55;0.52;;;10.80;99.90;;;;;;4995283;28;20076;-70
2023/03/09 02:05:14;;;;;;;3.50;0.50;;;10.70;99.90;;;;;;4996697;28;20022;-70
2023/03/09 02:07:43;;;;;;;1.17;0.50;;;10.70;99.90;;;;;;4996561;28;20425;-70
2023/03/09 02:10:17;;;;;;;1.42;0.50;;;10.80;99.90;;;;;;4996506;28;20026;-71
2023/03/09 02:12:47;;;;;;;1.67;0.43;;;10.80;99.90;;;;;;4995431;28;20027;-71
2023/03/09 02:15:12;;;;;;;1.38;0.50;;;10.90;99.90;;;;;;4996637;28;20018;-70
2023/03/09 02:17:38;;;;;;;3.47;0.43;;;10.80;99.90;;;;;;4995066;28;20102;-70
2023/03/09 02:20:41;;;;;;;1.50;0.30;;;10.80;99.90;;;;;;4997781;28;20023;-71
2023/03/09 02:23:22;;;;;;;1.98;0.40;;;10.70;99.90;;;;;;4995974;28;20459;-71
2023/03/09 02:25:56;;;;;;;0.98;0.40;;;10.60;99.90;;;;;;4997072;28;20023;-70
2023/03/09 02:28:22;;;;;;;2.38;0.35;;;10.40;99.90;;;;;;4995261;28;20022;-70
2023/03/09 02:30:49;;;;;;;1.40;0.60;;;10.30;99.90;;;;;;4996137;28;20038;-70
2023/03/09 02:33:32;;;;;;;2.45;0.68;;;10.10;99.90;;;;;;5001670;28;20041;-71
2023/03/09 02:35:59;;;;;;;1.73;0.30;;;10.00;99.90;;;;;;5003496;28;20029;-71
2023/03/09 02:38:25;;;;;;;1.33;0.60;;;10.00;99.90;;;;;;4995189;28;20133;-70
2023/03/09 02:40:52;;;;;;;2.88;0.60;;;9.90;99.90;;;;;;4995726;28;20058;-69
2023/03/09 02:43:21;;;;;;;1.30;0.38;;;9.80;99.90;;;;;;4994918;28;20117;-70
2023/03/09 02:45:49;;;;;;;1.73;0.60;;;9.90;99.90;;;;;;4996019;28;20030;-69
2023/03/09 02:48:14;;;;;;;2.47;0.50;;;9.90;99.90;;;;;;4994436;28;20022;-70
2023/03/09 02:50:40;;;;;;;4.07;0.70;;;9.80;99.90;;;;;;4995782;28;20033;-71
2023/03/09 02:53:06;;;;;;;2.33;0.50;;;9.80;99.90;;;;;;4995780;28;20026;-71
2023/03/09 02:55:31;;;;;;;2.23;0.40;;;9.80;99.90;;;;;;4996092;28;20039;-71
2023/03/09 02:57:57;;;;;;;3.87;0.70;;;9.80;99.90;;;;;;4994979;28;20537;-72
2023/03/09 03:00:24;;;;;;;3.40;0.50;;;9.80;99.90;;;;;;5008894;23;20426;-71
2023/03/09 03:02:50;;;;;;;1.52;0.50;;;9.70;99.90;;;;;;4989545;28;20027;-71
2023/03/09 03:05:15;;;;;;;0.70;0.33;;;9.70;99.90;;;;;;4975714;28;20030;-71
2023/03/09 03:07:41;;;;;;;1.23;0.50;;;9.70;99.90;;;;;;4975804;28;20337;-71
2023/03/09 03:10:07;;;;;;;1.57;0.43;;;9.70;99.90;;;;;;4990825;28;20023;-71
2023/03/09 03:12:33;;;;;;;1.45;0.47;;;9.70;99.90;;;;;;4974142;28;20431;-71
2023/03/09 03:14:58;;;;;;;1.43;0.50;;;9.70;99.90;;;;;;4974063;28;20031;-71
2023/03/09 03:17:24;;;;;;;4.90;0.60;;;9.60;99.90;;;;;;4974421;28;20030;-71
2023/03/09 03:19:50;;;;;;;3.45;0.70;;;9.70;99.90;;;;;;4974088;28;20095;-71
2023/03/09 03:22:15;;;;;;;2.03;0.50;;;9.70;99.90;;;;;;4975476;28;20027;-70
2023/03/09 03:24:41;;;;;;;0.90;0.33;;;9.70;99.90;;;;;;4990839;28;20023;-71
2023/03/09 03:27:07;;;;;;;2.40;0.50;;;9.80;99.90;;;;;;4975535;28;20346;-72
2023/03/09 03:29:33;;;;;;;2.83;0.52;;;9.70;99.90;;;;;;4974919;28;20030;-71
2023/03/09 03:31:59;;;;;;;2.47;0.47;;;9.60;99.90;;;;;;4986703;28;20479;-71
2023/03/09 03:34:24;;;;;;;1.17;0.50;;;9.60;99.90;;;;;;4993656;28;20055;-71
2023/03/09 03:36:50;;;;;;;2.60;0.60;;;9.60;99.90;;;;;;4994662;28;20027;-71
2023/03/09 03:39:16;;;;;;;1.70;0.70;;;9.70;99.90;;;;;;4993282;28;20172;-71
2023/03/09 03:41:41;;;;;;;2.00;0.60;;;9.60;99.90;;;;;;4994393;28;20041;-71
2023/03/09 03:44:07;;;;;;;3.90;0.70;;;9.70;99.90;;;;;;4994760;28;20054;-71
2023/03/09 03:46:32;;;;;;;4.73;0.70;;;9.80;99.90;;;;;;4994329;28;20487;-71
2023/03/09 03:48:58;;;;;;;4.27;1.43;;;9.80;99.90;;;;;;4993032;28;20022;-71
2023/03/09 03:51:24;;;;;;;3.47;1.43;;;9.80;99.90;;;;;;4994399;28;20471;-71
2023/03/09 03:53:50;;;;;;;6.00;0.82;;;9.80;99.90;;;;;;4994264;28;20029;-70
2023/03/09 03:56:15;;;;;;;2.73;0.60;;;9.70;99.90;;;;;;4994142;28;20576;-70
2023/03/09 03:58:41;;;;;;;6.32;0.85;;;9.80;99.90;;;;;;4994143;28;20356;-71
2023/03/09 04:01:07;;;;;;;5.10;1.90;;;9.80;99.90;;;;;;4993592;28;20035;-70
2023/03/09 04:03:33;;;;;;;3.08;0.80;;;9.80;99.90;;;;;;4994175;28;20101;-70
2023/03/09 04:05:59;;;;;;;3.60;0.70;;;9.70;99.90;;;;;;4994082;28;20056;-70
2023/03/09 04:08:24;;;;;;;5.10;0.63;;;9.70;99.90;;;;;;5009006;28;20022;-70
2023/03/09 04:10:50;;;;;;;2.80;0.70;;;9.80;99.90;;;;;;4992529;28;20134;-70
2023/03/09 04:13:15;;;;;;;2.60;0.70;;;9.70;99.90;;;;;;4994172;28;20164;-70
2023/03/09 04:15:42;;;;;;;3.70;0.60;;;9.70;99.90;;;;;;4992311;28;20030;-71
2023/03/09 04:18:07;;;;;;;3.40;1.02;;;9.70;99.90;;;;;;4993705;28;20442;-71
2023/03/09 04:20:35;;;;;;;5.28;1.23;;;9.70;99.90;;;;;;4993764;28;20034;-71
2023/03/09 04:23:00;;;;;;;6.85;1.05;;;9.80;99.90;;;;;;4993407;28;20121;-71
2023/03/09 04:25:27;;;;;;;4.57;0.90;;;9.70;99.90;;;;;;5008873;28;20132;-71
2023/03/09 04:27:54;;;;;;;3.45;0.73;;;9.70;99.90;;;;;;5008844;28;20026;-71
2023/03/09 04:30:20;;;;;;;3.00;0.77;;;9.80;99.90;;;;;;5008328;28;20058;-70
2023/03/09 04:32:47;;;;;;;5.85;0.80;;;9.70;99.90;;;;;;4993602;28;20415;-71
2023/03/09 04:35:13;;;;;;;4.10;0.85;;;9.80;99.90;;;;;;4993697;28;20084;-70
2023/03/09 04:37:39;;;;;;;5.35;0.90;;;9.80;99.90;;;;;;4993799;28;20022;-71
2023/03/09 04:40:05;;;;;;;3.77;0.87;;;9.80;99.90;;;;;;5009222;28;20505;-71
2023/03/09 04:42:31;;;;;;;8.52;1.35;;;9.70;99.90;;;;;;4994569;28;20022;-71
2023/03/09 04:44:57;;;;;;;;;;;9.70;99.90;;;;;;4994944;28;20037;-69
2023/03/09 04:47:23;;;;;;;5.28;1.00;;;9.80;99.90;;;;;;4993453;28;19906;-70
2023/03/09 04:49:49;;;;;;;6.30;1.20;;;9.80;99.90;;;;;;4993371;28;20491;-70
2023/03/09 04:52:14;;;;;;;3.22;1.02;;;9.70;99.90;;;;;;4993365;28;20057;-71
2023/03/09 04:54:40;;;;;;;5.70;0.93;;;9.70;99.90;;;;;;4993836;28;20123;-72
2023/03/09 04:57:06;;;;;;;10.63;1.10;;;9.70;99.90;;;;;;4993681;28;20030;-71
2023/03/09 04:59:32;;;;;;;9.95;0.90;;;9.80;99.90;;;;;;4993332;28;20455;-71
2023/03/09 05:01:57;;;;;;;5.95;1.08;;;9.80;99.90;;;;;;4993053;28;20038;-71
2023/03/09 05:04:23;;;;;;;6.67;1.20;;;9.80;99.90;;;;;;4994095;28;20033;-70
2023/03/09 05:06:49;;;;;;;2.97;0.90;;;9.80;99.90;;;;;;4993544;28;20435;-71
2023/03/09 05:09:14;;;;;;;5.23;0.90;;;9.80;99.90;;;;;;5008236;28;20033;-70
2023/03/09 05:11:41;;;;;;;5.50;1.10;;;9.80;99.90;;;;;;4993376;28;20466;-71
2023/03/09 05:14:06;;;;;;;6.20;1.30;;;9.80;99.90;;;;;;4993176;28;20057;-70
2023/03/09 05:16:32;;;;;;;5.63;1.33;;;9.90;99.90;;;;;;4993009;28;20027;-71
2023/03/09 05:18:58;;;;;;;4.83;1.27;;;9.90;99.90;;;;;;4987463;28;20030;-70
2023/03/09 05:21:23;;;;;;;6.20;2.28;;;9.90;99.90;;;;;;4992425;28;20034;-71
2023/03/09 05:23:49;;;;;;;6.20;1.37;;;9.90;99.90;;;;;;5008168;28;20026;-70
2023/03/09 05:26:14;;;;;;;4.53;1.13;;;9.80;99.90;;;;;;4993199;28;20026;-70
2023/03/09 05:28:40;;;;;;;8.27;1.83;;;10.00;99.90;;;;;;4989841;28;20436;-70
2023/03/09 05:31:13;;;;;;;8.87;1.40;;;10.00;99.90;;;;;;4986794;28;20515;-69
2023/03/09 05:33:39;;;;;;;4.38;1.00;;;9.90;99.90;;;;;;4974103;28;20270;-70
2023/03/09 05:36:17;;;;;;;7.90;2.28;;;10.00;99.90;;;;;;4977416;28;20084;-71
2023/03/09 05:38:42;;;;;;;6.88;1.65;;;9.90;99.90;;;;;;4977665;28;20042;-70
2023/03/09 05:41:08;;;;;;;6.40;1.37;;;10.00;99.90;;;;;;4977606;28;20034;-70
2023/03/09 05:43:35;;;;;;;5.63;1.40;;;10.10;99.90;;;;;;4992587;28;20472;-70
2023/03/09 05:46:02;;;;;;;7.72;1.65;;;10.10;99.90;;;;;;4977303;28;20583;-70
2023/03/09 05:48:27;;;;;;;5.10;1.10;;;10.10;99.90;;;;;;4991318;28;20065;-70
2023/03/09 05:50:53;;;;;;;10.67;1.40;;;10.10;99.90;;;;;;4986329;28;20105;-70
2023/03/09 05:53:19;;;;;;;7.93;1.40;;;10.20;99.90;;;;;;4992628;28;20037;-71
2023/03/09 05:55:49;;;;;;;6.43;1.70;;;10.20;99.90;;;;;;4986156;28;20031;-71
2023/03/09 05:58:15;;;;;;;7.55;1.60;;;10.20;99.90;;;;;;4981231;28;20404;-71
2023/03/09 06:00:40;;;;;;;6.93;1.53;;;10.20;99.90;;;;;;4997836;28;20038;-70
2023/03/09 06:03:06;;;;;;;9.60;4.40;;;10.30;99.90;;;;;;4998251;28;20026;-69
2023/03/09 06:05:31;;;;;;;7.37;1.30;;;10.30;99.90;;;;;;5009327;28;20471;-70
2023/03/09 06:07:57;;;;;;;7.17;1.50;;;10.30;99.90;;;;;;5017179;28;20026;-69
2023/03/09 06:10:22;;;;;;;8.73;2.60;;;10.40;99.90;;;;;;5016656;28;20030;-68
2023/03/09 06:12:48;;;;;;;6.90;1.23;;;10.40;99.90;;;;;;5017244;28;20033;-68
2023/03/09 15:52:40;;;;;;;9.65;2.72;;;14.00;99.90;;;;;;5111472;27;20306;-68
2023/03/09 15:55:06;;;;;;;6.32;1.58;;;13.90;99.90;;;;;;5109716;28;20031;-66
2023/03/09 15:57:32;;;;;;;8.05;2.10;;;14.00;99.90;;;;;;5110739;28;20016;-68
2023/03/09 15:59:58;;;;;;;8.67;1.77;;;14.00;99.90;;;;;;5110661;28;20487;-68
2023/03/09 16:02:24;;;;;;;9.82;1.85;;;14.00;99.90;;;;;;5108881;28;20111;-69
2023/03/09 16:04:50;;;;;;;;;;;14.00;99.90;;;;;;5109563;28;20027;-67
2023/03/09 16:07:16;;;;;;;8.80;1.75;;;13.90;99.90;;;;;;5110843;28;19904;-66
2023/03/09 16:09:42;;;;;;;6.20;1.40;;;14.00;99.90;;;;;;5094973;28;20115;-67
2023/03/09 16:12:08;;;;;;;5.82;1.27;;;13.90;99.90;;;;;;5090058;28;20405;-67
2023/03/09 16:14:34;;;;;;;7.93;1.55;;;14.00;99.90;;;;;;5089052;28;20025;-68
2023/03/09 16:16:59;;;;;;;5.95;1.60;;;13.90;99.90;;;;;;5089408;28;20027;-67
2023/03/09 16:19:25;;;;;;;7.78;1.77;;;13.90;99.90;;;;;;5090512;28;20032;-69
2023/03/09 16:21:51;;;;;;;7.10;1.73;;;13.90;99.90;;;;;;5088920;28;20040;-68
2023/03/09 16:24:17;;;;;;;10.97;1.73;;;13.90;99.90;;;;;;5090262;28;20028;-68
2023/03/09 16:26:42;;;;;;;10.60;1.55;;;13.90;99.90;;;;;;5088735;28;20031;-72
2023/03/09 16:29:08;;;;;;;6.80;1.73;;;13.80;99.90;;;;;;5090443;28;20036;-66
2023/03/09 16:31:34;;;;;;;7.15;1.63;;;13.80;99.90;;;;;;5088409;28;20052;-74
2023/03/09 16:33:59;;;;;;;8.00;2.03;;;13.90;99.90;;;;;;5089935;28;20491;-67
2023/03/09 16:36:26;;;;;;;9.73;2.00;;;13.90;99.90;;;;;;5089335;28;20116;-67
2023/03/09 16:38:53;;;;;;;8.25;2.00;;;13.90;99.90;;;;;;5088165;28;20262;-72
2023/03/09 16:41:19;;;;;;;7.07;1.42;;;13.90;99.90;;;;;;5089826;28;20020;-69
2023/03/09 16:43:45;;;;;;;7.93;2.15;;;13.80;99.90;;;;;;5089897;28;20532;-67
2023/03/09 16:46:22;;;;;;;10.55;2.10;;;13.80;99.90;;;;;;5089548;28;20058;-68
2023/03/09 16:48:48;;;;;;;10.68;2.35;;;13.70;99.90;;;;;;5089186;28;20025;-67
2023/03/09 16:51:17;;;;;;;10.05;2.83;;;13.70;99.90;;;;;;5087753;28;20097;-67
2023/03/09 16:53:43;;;;;;;10.20;1.90;;;13.60;99.90;;;;;;5089668;28;20020;-69
2023/03/09 16:56:09;;;;;;;5.05;1.70;;;13.60;99.90;;;;;;5088225;28;20145;-67
2023/03/09 16:58:35;;;;;;;7.65;1.80;;;13.60;99.90;;;;;;5089298;28;20386;-69
2023/03/09 17:01:02;;;;;;;13.50;3.08;;;13.60;99.90;;;;;;5089977;28;20399;-66
2023/03/09 17:03:28;;;;;;;6.65;1.77;;;13.60;99.90;;;;;;5084199;28;20044;-71
2023/03/09 17:05:55;;;;;;;13.18;4.35;;;13.50;99.90;;;;;;5075849;28;20024;-71
2023/03/09 17:08:24;;;;;;;14.25;3.20;;;13.40;99.90;;;;;;5077020;28;20477;-71
2023/03/09 17:10:49;;;;;;;9.60;2.10;;;13.40;99.90;;;;;;5076324;28;20028;-71
2023/03/09 17:13:15;;;;;;;10.27;3.03;;;13.30;99.90;;;;;;5083873;28;20039;-70
2023/03/09 17:15:41;;;;;;;8.13;2.55;;;13.30;99.90;;;;;;5082928;28;20078;-70
2023/03/09 17:18:07;;;;;;;10.88;2.60;;;13.20;99.90;;;;;;5079135;28;20503;-70
2023/03/09 17:20:33;;;;;;;15.38;2.75;;;13.20;99.90;;;;;;5098373;28;20054;-72
2023/03/09 17:22:59;;;;;;;10.13;2.33;;;13.20;99.90;;;;;;5097617;28;20079;-70
2023/03/09 17:25:25;;;;;;;10.20;2.20;;;13.10;99.90;;;;;;5096490;28;20266;-70
2023/03/09 17:27:51;;;;;;;;;;;13.10;99.90;;;;;;5094797;28;20077;-69
2023/03/09 17:30:20;;;;;;;12.32;2.20;;;13.10;99.90;;;;;;5095712;28;19998;-69
2023/03/09 17:32:46;;;;;;;10.88;2.78;;;13.10;99.90;;;;;;5094611;28;20031;-69
2023/03/09 17:35:11;;;;;;;9.88;2.05;;;12.90;99.90;;;;;;5095055;28;20020;-71
2023/03/09 17:37:38;;;;;;;10.40;3.03;;;12.80;99.90;;;;;;5094504;28;20111;-71
2023/03/09 17:40:08;;;;;;;;;;;12.70;99.90;;;;;;5096491;28;20028;-70
2023/03/09 17:42:37;;;;;;;7.65;1.90;;;12.60;99.90;;;;;;5095605;28;19911;-64
2023/03/09 17:45:04;;;;;;;7.47;1.80;;;12.60;99.90;;;;;;5095185;28;20567;-65
2023/03/09 17:47:29;;;;;;;10.35;2.30;;;12.60;99.90;;;;;;5095037;28;20115;-62
2023/03/09 17:49:55;;;;;;;7.77;1.80;;;12.60;99.90;;;;;;5094101;28;20058;-64
2023/03/09 17:52:21;;;;;;;13.63;2.17;;;12.50;99.90;;;;;;5094952;28;20510;-64
2023/03/09 17:54:47;;;;;;;12.32;2.13;;;12.50;99.90;;;;;;5094622;28;20028;-64
2023/03/09 17:57:13;;;;;;;11.50;2.13;;;12.40;99.90;;;;;;5095181;28;20023;-65
2023/03/09 17:59:38;;;;;;;14.10;2.03;;;12.40;99.90;;;;;;5094784;28;20088;-65
2023/03/09 18:02:06;;;;;;;10.43;2.70;;;12.40;99.90;;;;;;5094572;28;20545;-63
2023/03/09 18:04:32;;;;;;;11.90;2.20;;;12.30;99.90;;;;;;5095139;28;20035;-64
2023/03/09 18:06:57;;;;;;;10.77;2.03;;;12.30;99.90;;;;;;5095136;28;20499;-64
2023/03/09 18:09:23;;;;;;;8.43;1.70;;;12.30;99.90;;;;;;5082825;28;20032;-65
2023/03/09 18:11:48;;;;;;;7.23;2.10;;;12.30;99.90;;;;;;5076588;28;20042;-63
2023/03/09 18:14:14;;;;;;;9.67;2.20;;;12.20;99.90;;;;;;5078198;28;20056;-64
2023/03/09 18:16:41;;;;;;;10.73;2.05;;;12.10;99.90;;;;;;5074613;28;20104;-64
2023/03/09 18:19:08;;;;;;;10.20;2.05;;;12.00;99.90;;;;;;5073411;28;20087;-65
2023/03/09 18:21:36;;;;;;;10.27;2.08;;;12.00;99.90;;;;;;5074216;28;20125;-64
2023/03/09 18:24:02;;;;;;;11.60;2.03;;;12.00;99.90;;;;;;5074115;28;20024;-64
2023/03/09 18:26:30;;;;;;;9.73;2.15;;;12.00;99.90;;;;;;5074191;28;20040;-64
2023/03/09 18:28:57;;;;;;;11.88;3.00;;;12.00;99.90;;;;;;5074059;28;20025;-64
2023/03/09 18:31:23;;;;;;;6.68;2.05;;;12.00;99.90;;;;;;5074034;28;20024;-62
2023/03/09 18:33:49;;;;;;;14.27;2.10;;;12.00;99.90;;;;;;5073812;28;20496;-64
2023/03/09 18:36:15;;;;;;;11.40;2.00;;;12.00;99.90;;;;;;5073848;28;20028;-64
2023/03/09 18:38:42;;;;;;;13.35;2.20;;;11.90;99.90;;;;;;5074043;28;20032;-64
2023/03/09 18:41:08;;;;;;;9.23;1.90;;;11.90;99.90;;;;;;5073822;28;20033;-64
2023/03/09 18:43:34;;;;;;;5.38;1.80;;;11.90;99.90;;;;;;5073138;28;20128;-64
2023/03/09 18:46:00;;;;;;;9.13;2.15;;;11.80;99.90;;;;;;5073994;28;20033;-63
2023/03/09 18:48:26;;;;;;;10.40;5.18;;;11.80;99.90;;;;;;5073983;28;20107;-64
2023/03/09 18:50:53;;;;;;;9.70;3.20;;;11.80;99.90;;;;;;5073781;28;20032;-65
2023/03/09 18:53:23;;;;;;;11.90;4.20;;;11.70;99.90;;;;;;5073751;28;20316;-64
2023/03/09 18:55:56;;;;;;;14.65;4.55;;;11.70;99.90;;;;;;5074476;28;20024;-65
2023/03/09 18:58:22;;;;;;;13.02;4.03;;;11.70;99.90;;;;;;5073985;28;20031;-64
2023/03/09 19:00:48;;;;;;;8.60;2.72;;;11.50;99.90;;;;;;5073383;28;20029;-64
2023/03/09 19:03:14;;;;;;;10.05;3.03;;;11.50;99.90;;;;;;5073170;28;20064;-63
2023/03/09 19:05:40;;;;;;;8.18;3.45;;;11.50;99.90;;;;;;5073249;28;20017;-64
2023/03/09 19:08:06;;;;;;;10.63;3.00;;;11.50;99.90;;;;;;5074239;28;20028;-63
2023/03/09 19:10:31;;;;;;;8.80;2.50;;;11.50;99.90;;;;;;5074903;28;20491;-65
2023/03/09 19:12:57;;;;;;;11.10;3.13;;;11.50;99.90;;;;;;5075113;28;20021;-64
2023/03/09 19:15:22;;;;;;;25.17;11.60;;;11.50;99.90;;;;;;5074806;28;20539;-64
2023/03/09 19:17:48;;;;;;;9.77;3.07;;;11.50;99.90;;;;;;5074525;28;20031;-64
2023/03/09 19:20:13;;;;;;;9.03;3.13;;;11.60;99.90;;;;;;5074170;28;20074;-64
2023/03/09 19:22:39;;;;;;;10.83;3.40;;;11.50;99.90;;;;;;5074192;28;20021;-64
2023/03/09 19:25:05;;;;;;;13.87;3.73;;;11.50;99.90;;;;;;5072916;28;20012;-64
2023/03/09 19:27:31;;;;;;;14.63;3.30;;;11.50;99.90;;;;;;5071640;28;20028;-64
2023/03/09 19:29:57;;;;;;;9.00;2.80;;;11.50;99.90;;;;;;5073560;28;20037;-64
2023/03/09 19:32:22;;;;;;;9.65;3.20;;;11.50;99.90;;;;;;5073110;28;20071;-64
2023/03/09 19:34:48;;;;;;;10.53;2.77;;;11.50;99.90;;;;;;5078922;28;20032;-64
2023/03/09 19:37:13;;;;;;;11.10;2.90;;;11.40;99.90;;;;;;5077298;28;20017;-63
2023/03/09 19:39:39;;;;;;;14.00;4.10;;;11.40;99.90;;;;;;5074931;28;20032;-63
2023/03/09 19:42:09;;;;;;;10.65;3.70;;;11.50;99.90;;;;;;5071739;28;20055;-64
2023/03/09 19:44:35;;;;;;;12.52;3.22;;;11.50;99.90;;;;;;5073350;28;20029;-64
2023/03/09 19:47:01;;;;;;;10.95;3.00;;;11.40;99.90;;;;;;5073098;28;20020;-64
2023/03/09 19:49:27;;;;;;;11.25;2.50;;;11.50;99.90;;;;;;5072828;28;20195;-65
2023/03/09 19:51:54;;;;;;;12.02;2.75;;;11.70;99.90;;;;;;5071398;28;20032;-63
2023/03/09 19:54:19;;;;;;;9.10;2.67;;;11.80;99.90;;;;;;5072918;28;20509;-63
2023/03/09 19:56:45;;;;;;;10.23;2.50;;;12.00;99.90;;;;;;5072460;28;20056;-62
2023/03/09 19:59:14;;;;;;;11.30;2.58;;;12.00;99.90;;;;;;5075988;28;20032;-62
2023/03/09 20:01:42;;;;;;;8.25;2.30;;;12.00;99.90;;;;;;5079672;28;20374;-64
2023/03/09 20:04:12;;;;;;;7.78;2.10;;;12.00;99.90;;;;;;5081977;28;20035;-63
2023/03/09 20:06:40;;;;;;;7.72;2.00;;;12.10;99.90;;;;;;5076210;28;20388;-64
2023/03/09 20:09:06;;;;;;;8.15;1.90;;;12.10;99.90;;;;;;5079693;28;20030;-63
2023/03/09 20:11:32;;;;;;;7.45;2.58;;;12.20;99.90;;;;;;5080111;28;20024;-64
2023/03/09 20:13:58;;;;;;;5.60;1.83;;;12.20;99.90;;;;;;5079948;28;20107;-64
2023/03/09 20:16:26;;;;;;;4.45;1.65;;;12.30;99.90;;;;;;5084737;28;20028;-64
2023/03/09 20:18:54;;;;;;;5.57;1.73;;;12.50;99.90;;;;;;5091590;28;20496;-63
2023/03/09 20:21:20;;;;;;;6.32;1.85;;;12.40;99.90;;;;;;5093027;28;20380;-63
2023/03/09 20:23:46;;;;;;;8.13;3.00;;;12.50;99.90;;;;;;5093208;28;20036;-63
2023/03/09 20:26:23;;;;;;;7.10;1.85;;;12.50;99.90;;;;;;5089922;28;20359;-63
2023/03/09 20:28:49;;;;;;;7.05;1.65;;;12.50;99.90;;;;;;5078921;28;20071;-64
2023/03/09 20:31:27;;;;;;;9.60;2.05;;;12.50;99.90;;;;;;5088130;28;20070;-64
2023/03/09 20:33:55;;;;;;;5.13;1.77;;;12.60;99.90;;;;;;5087051;28;20086;-63
2023/03/09 20:36:21;;;;;;;4.10;1.40;;;12.60;99.90;;;;;;5081593;28;20084;-63
2023/03/09 20:38:46;;;;;;;6.07;2.05;;;12.60;99.90;;;;;;5081001;28;20046;-63
2023/03/09 20:41:15;;;;;;;5.05;1.45;;;12.60;99.90;;;;;;5085052;28;20449;-65
2023/03/09 20:43:40;;;;;;;4.28;1.30;;;12.70;99.90;;;;;;5092583;28;20028;-64
2023/03/09 20:46:07;;;;;;;5.23;1.50;;;12.70;99.90;;;;;;5093827;28;20027;-64
2023/03/09 20:48:34;;;;;;;4.93;1.67;;;12.80;99.90;;;;;;5095024;28;20480;-65
2023/03/09 20:51:01;;;;;;;6.13;1.70;;;12.70;99.90;;;;;;5096145;28;20089;-64
2023/03/09 20:53:26;;;;;;;;;;;12.70;99.90;;;;;;5097401;28;20110;-65
2023/03/09 20:55:52;;;;;;;4.28;1.35;;;12.90;99.90;;;;;;5096677;28;19939;-64
2023/03/09 20:58:18;;;;;;;7.18;1.52;;;12.80;99.90;;;;;;5089213;28;20024;-63
2023/03/09 21:00:44;;;;;;;5.45;1.67;;;12.90;99.90;;;;;;5074914;28;20032;-63
2023/03/09 21:03:10;;;;;;;5.27;1.57;;;12.80;99.90;;;;;;5076108;28;20097;-63
2023/03/09 21:05:36;;;;;;;4.45;1.67;;;12.90;99.90;;;;;;5075884;28;20025;-62
2023/03/09 21:08:04;;;;;;;4.28;1.23;;;12.70;99.90;;;;;;5075303;28;20021;-65
2023/03/09 21:10:29;;;;;;;6.30;1.65;;;12.70;99.90;;;;;;5074338;28;20115;-64
2023/03/09 21:12:55;;;;;;;4.63;1.63;;;12.70;99.90;;;;;;5075808;28;20429;-64
2023/03/09 21:15:21;;;;;;;6.28;1.90;;;12.70;99.90;;;;;;5075709;28;20024;-62
2023/03/09 21:17:49;;;;;;;3.47;1.37;;;12.70;99.90;;;;;;5075432;28;20033;-64
2023/03/09 21:20:19;;;;;;;5.30;1.60;;;12.70;99.90;;;;;;5075964;28;20319;-64
2023/03/09 21:22:44;;;;;;;4.25;1.30;;;12.70;99.90;;;;;;5074350;28;20020;-63
2023/03/09 21:25:10;;;;;;;6.55;1.55;;;12.60;99.90;;;;;;5075537;28;20044;-63
2023/03/09 21:27:37;;;;;;;4.43;1.30;;;12.70;99.90;;;;;;5076069;28;20024;-63
2023/03/09 21:30:05;;;;;;;5.03;1.70;;;12.70;99.90;;;;;;5075470;28;20094;-63
2023/03/09 21:32:31;;;;;;;3.30;1.20;;;12.70;99.90;;;;;;5075034;28;20029;-64
2023/03/09 21:34:56;;;;;;;3.57;1.37;;;12.70;99.90;;;;;;5075674;28;20036;-65
2023/03/09 21:37:22;;;;;;;6.23;1.60;;;12.70;99.90;;;;;;5074983;28;20016;-64
2023/03/09 21:39:47;;;;;;;6.43;1.57;;;12.80;99.90;;;;;;5075122;28;20032;-63
2023/03/09 21:42:13;;;;;;;4.00;1.43;;;12.80;99.90;;;;;;5075214;28;20074;-64
2023/03/09 21:44:38;;;;;;;4.00;1.30;;;12.80;99.90;;;;;;5076865;28;20028;-64
2023/03/09 21:47:04;;;;;;;7.43;1.30;;;12.80;99.90;;;;;;5077120;28;20078;-64
2023/03/09 21:49:30;;;;;;;7.70;1.67;;;12.80;99.90;;;;;;5075836;28;20055;-64
2023/03/09 21:51:55;;;;;;;5.63;1.43;;;12.90;99.90;;;;;;5076028;28;20385;-63
2023/03/09 21:54:21;;;;;;;3.47;1.40;;;13.00;99.90;;;;;;5076134;28;20028;-65
2023/03/09 21:56:49;;;;;;;3.88;1.40;;;13.10;99.90;;;;;;5075334;28;20028;-64
2023/03/09 21:59:14;;;;;;;3.78;1.40;;;13.10;99.90;;;;;;5075046;28;20021;-61
2023/03/09 22:01:40;;;;;;;4.47;1.17;;;13.20;99.90;;;;;;5073483;28;20434;-64
2023/03/09 22:04:05;;;;;;;5.03;1.27;;;13.10;99.90;;;;;;5074541;28;20039;-63
2023/03/09 22:06:32;;;;;;;3.10;0.93;;;13.10;99.90;;;;;;5075225;28;20036;-62
2023/03/09 22:08:59;;;;;;;4.57;1.40;;;13.10;99.90;;;;;;5075449;28;20453;-63
2023/03/09 22:11:28;;;;;;;3.45;0.90;;;13.10;99.90;;;;;;5075218;28;20425;-63
2023/03/09 22:13:54;;;;;;;2.95;0.95;;;13.10;99.90;;;;;;5077503;28;20020;-64
2023/03/09 22:16:27;;;;;;;5.28;1.30;;;13.10;99.90;;;;;;5076836;28;20035;-63
2023/03/09 22:18:55;;;;;;;4.47;1.23;;;13.00;99.90;;;;;;5074607;28;20024;-62
2023/03/09 22:21:21;;;;;;;4.35;1.20;;;13.00;99.90;;;;;;5074165;28;20485;-65
2023/03/09 22:23:46;;;;;;;4.78;1.13;;;12.90;99.90;;;;;;5074338;28;20028;-62